sensor_id;sensor_type;location;lat;lon;timestamp;P1;durP1;ratioP1;P2;durP2;ratioP2
18140;SDS011;9196;49.194;12.526;2022-10-16T00:00:48;7.00;;;2.53;;
18140;SDS011;9196;49.194;12.526;2022-10-16T00:03:15;4.53;;;2.23;;
18140;SDS011;9196;49.194;12.526;2022-10-16T00:05:42;5.27;;;2.43;;
18140;SDS011;9196;49.194;12.526;2022-10-16T00:08:10;4.23;;;2.33;;
18140;SDS011;9196;49.194;12.526;2022-10-16T00:10:38;4.60;;;2.10;;
18140;SDS011;9196;49.194;12.526;2022-10-16T00:13:07;8.10;;;2.30;;
18140;SDS011;9196;49.194;12.526;2022-10-16T00:15:34;2.40;;;1.87;;
18140;SDS011;9196;49.194;12.526;2022-10-16T00:18:02;4.43;;;2.37;;
18140;SDS011;9196;49.194;12.526;2022-10-16T00:20:29;2.73;;;1.90;;
18140;SDS011;9196;49.194;12.526;2022-10-16T00:22:56;6.40;;;2.73;;
18140;SDS011;9196;49.194;12.526;2022-10-16T00:25:23;10.70;;;2.00;;
18140;SDS011;9196;49.194;12.526;2022-10-16T00:27:50;4.20;;;1.87;;
18140;SDS011;9196;49.194;12.526;2022-10-16T00:30:18;4.20;;;2.03;;
18140;SDS011;9196;49.194;12.526;2022-10-16T00:32:45;2.90;;;2.00;;
18140;SDS011;9196;49.194;12.526;2022-10-16T00:35:12;4.70;;;2.10;;
18140;SDS011;9196;49.194;12.526;2022-10-16T00:37:38;6.70;;;1.73;;
18140;SDS011;9196;49.194;12.526;2022-10-16T00:40:06;3.17;;;2.03;;
18140;SDS011;9196;49.194;12.526;2022-10-16T00:42:33;3.10;;;2.30;;
18140;SDS011;9196;49.194;12.526;2022-10-16T00:45:00;4.00;;;1.63;;
18140;SDS011;9196;49.194;12.526;2022-10-16T00:47:29;2.00;;;1.90;;
18140;SDS011;9196;49.194;12.526;2022-10-16T00:49:59;4.20;;;2.17;;
18140;SDS011;9196;49.194;12.526;2022-10-16T00:52:30;8.73;;;2.10;;
18140;SDS011;9196;49.194;12.526;2022-10-16T00:54:57;2.87;;;2.00;;
18140;SDS011;9196;49.194;12.526;2022-10-16T00:57:26;2.03;;;1.83;;
18140;SDS011;9196;49.194;12.526;2022-10-16T00:59:52;7.70;;;2.33;;
18140;SDS011;9196;49.194;12.526;2022-10-16T01:02:20;2.40;;;2.13;;
18140;SDS011;9196;49.194;12.526;2022-10-16T01:04:49;5.80;;;2.03;;
18140;SDS011;9196;49.194;12.526;2022-10-16T01:07:20;2.60;;;2.50;;
18140;SDS011;9196;49.194;12.526;2022-10-16T01:09:59;4.10;;;1.97;;
18140;SDS011;9196;49.194;12.526;2022-10-16T01:12:36;1.90;;;1.80;;
18140;SDS011;9196;49.194;12.526;2022-10-16T01:15:08;5.17;;;2.27;;
18140;SDS011;9196;49.194;12.526;2022-10-16T01:17:41;3.33;;;1.80;;
18140;SDS011;9196;49.194;12.526;2022-10-16T01:20:15;5.53;;;2.20;;
18140;SDS011;9196;49.194;12.526;2022-10-16T01:23:00;3.10;;;1.70;;
18140;SDS011;9196;49.194;12.526;2022-10-16T01:28:24;4.43;;;2.03;;
18140;SDS011;9196;49.194;12.526;2022-10-16T01:30:58;5.03;;;2.17;;
18140;SDS011;9196;49.194;12.526;2022-10-16T01:33:29;2.60;;;1.70;;
18140;SDS011;9196;49.194;12.526;2022-10-16T01:36:01;7.70;;;3.73;;
18140;SDS011;9196;49.194;12.526;2022-10-16T01:38:33;7.40;;;2.17;;
18140;SDS011;9196;49.194;12.526;2022-10-16T01:41:04;7.50;;;1.80;;
18140;SDS011;9196;49.194;12.526;2022-10-16T01:43:37;2.27;;;2.10;;
18140;SDS011;9196;49.194;12.526;2022-10-16T01:46:06;2.90;;;2.70;;
18140;SDS011;9196;49.194;12.526;2022-10-16T01:48:36;7.30;;;2.40;;
18140;SDS011;9196;49.194;12.526;2022-10-16T01:51:04;5.43;;;2.13;;
18140;SDS011;9196;49.194;12.526;2022-10-16T01:53:34;4.50;;;2.60;;
18140;SDS011;9196;49.194;12.526;2022-10-16T01:56:02;6.47;;;2.73;;
18140;SDS011;9196;49.194;12.526;2022-10-16T01:58:32;5.90;;;3.40;;
18140;SDS011;9196;49.194;12.526;2022-10-16T02:01:04;6.90;;;1.90;;
18140;SDS011;9196;49.194;12.526;2022-10-16T02:03:33;4.30;;;2.20;;
18140;SDS011;9196;49.194;12.526;2022-10-16T02:06:02;9.23;;;1.90;;
18140;SDS011;9196;49.194;12.526;2022-10-16T02:08:29;2.07;;;1.97;;
18140;SDS011;9196;49.194;12.526;2022-10-16T02:10:58;2.07;;;1.97;;
18140;SDS011;9196;49.194;12.526;2022-10-16T02:13:27;2.00;;;1.90;;
18140;SDS011;9196;49.194;12.526;2022-10-16T02:16:00;3.10;;;2.13;;
18140;SDS011;9196;49.194;12.526;2022-10-16T02:18:27;6.90;;;2.23;;
18140;SDS011;9196;49.194;12.526;2022-10-16T02:20:57;2.03;;;1.93;;
18140;SDS011;9196;49.194;12.526;2022-10-16T02:23:29;7.57;;;2.37;;
18140;SDS011;9196;49.194;12.526;2022-10-16T02:26:04;5.60;;;2.30;;
18140;SDS011;9196;49.194;12.526;2022-10-16T02:28:34;3.70;;;2.20;;
18140;SDS011;9196;49.194;12.526;2022-10-16T02:31:08;3.30;;;2.33;;
18140;SDS011;9196;49.194;12.526;2022-10-16T02:33:37;2.40;;;2.20;;
18140;SDS011;9196;49.194;12.526;2022-10-16T02:36:06;3.40;;;2.10;;
18140;SDS011;9196;49.194;12.526;2022-10-16T02:38:33;3.20;;;2.43;;
18140;SDS011;9196;49.194;12.526;2022-10-16T02:41:01;5.27;;;1.87;;
18140;SDS011;9196;49.194;12.526;2022-10-16T02:43:30;10.43;;;1.97;;
18140;SDS011;9196;49.194;12.526;2022-10-16T02:45:58;7.90;;;2.30;;
18140;SDS011;9196;49.194;12.526;2022-10-16T02:48:26;10.80;;;2.40;;
18140;SDS011;9196;49.194;12.526;2022-10-16T02:50:53;2.33;;;2.20;;
18140;SDS011;9196;49.194;12.526;2022-10-16T02:53:20;6.83;;;3.43;;
18140;SDS011;9196;49.194;12.526;2022-10-16T02:55:47;9.17;;;2.10;;
18140;SDS011;9196;49.194;12.526;2022-10-16T02:58:13;3.00;;;2.10;;
18140;SDS011;9196;49.194;12.526;2022-10-16T03:00:40;3.73;;;2.10;;
18140;SDS011;9196;49.194;12.526;2022-10-16T03:03:07;6.83;;;1.87;;
18140;SDS011;9196;49.194;12.526;2022-10-16T03:05:35;7.73;;;2.10;;
18140;SDS011;9196;49.194;12.526;2022-10-16T03:08:02;2.90;;;2.17;;
18140;SDS011;9196;49.194;12.526;2022-10-16T03:10:29;8.33;;;2.07;;
18140;SDS011;9196;49.194;12.526;2022-10-16T03:12:56;6.37;;;2.67;;
18140;SDS011;9196;49.194;12.526;2022-10-16T03:15:23;2.70;;;2.00;;
18140;SDS011;9196;49.194;12.526;2022-10-16T03:17:50;2.90;;;1.47;;
18140;SDS011;9196;49.194;12.526;2022-10-16T03:20:17;4.00;;;2.40;;
18140;SDS011;9196;49.194;12.526;2022-10-16T03:22:45;2.23;;;2.13;;
18140;SDS011;9196;49.194;12.526;2022-10-16T03:25:12;2.27;;;2.03;;
18140;SDS011;9196;49.194;12.526;2022-10-16T03:27:39;2.30;;;2.10;;
18140;SDS011;9196;49.194;12.526;2022-10-16T03:30:06;10.27;;;2.20;;
18140;SDS011;9196;49.194;12.526;2022-10-16T03:32:34;7.00;;;2.53;;
18140;SDS011;9196;49.194;12.526;2022-10-16T03:35:01;4.03;;;2.27;;
18140;SDS011;9196;49.194;12.526;2022-10-16T03:37:27;6.57;;;2.57;;
18140;SDS011;9196;49.194;12.526;2022-10-16T03:39:56;3.77;;;2.70;;
18140;SDS011;9196;49.194;12.526;2022-10-16T03:42:22;3.17;;;2.97;;
18140;SDS011;9196;49.194;12.526;2022-10-16T03:44:49;3.70;;;3.00;;
18140;SDS011;9196;49.194;12.526;2022-10-16T03:47:16;3.20;;;2.90;;
18140;SDS011;9196;49.194;12.526;2022-10-16T03:49:46;3.60;;;2.37;;
18140;SDS011;9196;49.194;12.526;2022-10-16T03:52:13;4.43;;;2.13;;
18140;SDS011;9196;49.194;12.526;2022-10-16T03:54:40;8.03;;;2.20;;
18140;SDS011;9196;49.194;12.526;2022-10-16T03:57:08;2.83;;;2.30;;
18140;SDS011;9196;49.194;12.526;2022-10-16T03:59:35;7.23;;;2.37;;
18140;SDS011;9196;49.194;12.526;2022-10-16T04:02:01;2.20;;;2.10;;
18140;SDS011;9196;49.194;12.526;2022-10-16T04:04:28;4.37;;;2.63;;
18140;SDS011;9196;49.194;12.526;2022-10-16T04:06:55;4.90;;;1.90;;
18140;SDS011;9196;49.194;12.526;2022-10-16T04:09:22;13.30;;;2.50;;
18140;SDS011;9196;49.194;12.526;2022-10-16T04:11:49;5.33;;;2.53;;
18140;SDS011;9196;49.194;12.526;2022-10-16T04:14:17;2.40;;;2.17;;
18140;SDS011;9196;49.194;12.526;2022-10-16T04:16:44;3.63;;;2.30;;
18140;SDS011;9196;49.194;12.526;2022-10-16T04:19:10;2.20;;;2.10;;
18140;SDS011;9196;49.194;12.526;2022-10-16T04:21:38;2.13;;;2.03;;
18140;SDS011;9196;49.194;12.526;2022-10-16T04:24:05;7.00;;;2.33;;
18140;SDS011;9196;49.194;12.526;2022-10-16T04:26:32;3.60;;;2.60;;
18140;SDS011;9196;49.194;12.526;2022-10-16T04:28:59;4.37;;;2.40;;
18140;SDS011;9196;49.194;12.526;2022-10-16T04:31:27;3.50;;;2.00;;
18140;SDS011;9196;49.194;12.526;2022-10-16T04:33:54;3.60;;;2.30;;
18140;SDS011;9196;49.194;12.526;2022-10-16T04:36:21;2.60;;;2.20;;
18140;SDS011;9196;49.194;12.526;2022-10-16T04:38:47;2.83;;;2.73;;
18140;SDS011;9196;49.194;12.526;2022-10-16T04:41:14;6.10;;;2.53;;
18140;SDS011;9196;49.194;12.526;2022-10-16T04:43:41;2.47;;;2.37;;
18140;SDS011;9196;49.194;12.526;2022-10-16T04:46:08;2.83;;;2.63;;
18140;SDS011;9196;49.194;12.526;2022-10-16T04:48:36;6.70;;;4.83;;
18140;SDS011;9196;49.194;12.526;2022-10-16T04:51:03;3.10;;;2.90;;
18140;SDS011;9196;49.194;12.526;2022-10-16T04:53:30;3.03;;;2.90;;
18140;SDS011;9196;49.194;12.526;2022-10-16T04:55:57;21.37;;;4.07;;
18140;SDS011;9196;49.194;12.526;2022-10-16T04:58:23;13.43;;;4.10;;
18140;SDS011;9196;49.194;12.526;2022-10-16T05:00:50;8.63;;;3.17;;
18140;SDS011;9196;49.194;12.526;2022-10-16T05:03:17;13.80;;;2.67;;
18140;SDS011;9196;49.194;12.526;2022-10-16T05:05:45;3.60;;;3.07;;
18140;SDS011;9196;49.194;12.526;2022-10-16T05:08:13;26.70;;;6.93;;
18140;SDS011;9196;49.194;12.526;2022-10-16T05:10:40;8.33;;;4.10;;
18140;SDS011;9196;49.194;12.526;2022-10-16T05:13:08;14.10;;;5.93;;
18140;SDS011;9196;49.194;12.526;2022-10-16T05:15:35;29.33;;;15.87;;
18140;SDS011;9196;49.194;12.526;2022-10-16T05:18:02;9.40;;;7.30;;
18140;SDS011;9196;49.194;12.526;2022-10-16T05:20:29;8.20;;;6.03;;
18140;SDS011;9196;49.194;12.526;2022-10-16T05:22:57;6.00;;;4.23;;
18140;SDS011;9196;49.194;12.526;2022-10-16T05:25:24;10.97;;;5.40;;
18140;SDS011;9196;49.194;12.526;2022-10-16T05:27:51;11.00;;;4.73;;
18140;SDS011;9196;49.194;12.526;2022-10-16T05:30:17;5.60;;;5.20;;
18140;SDS011;9196;49.194;12.526;2022-10-16T05:32:46;16.70;;;6.70;;
18140;SDS011;9196;49.194;12.526;2022-10-16T05:35:13;7.87;;;5.97;;
18140;SDS011;9196;49.194;12.526;2022-10-16T05:37:40;11.30;;;6.13;;
18140;SDS011;9196;49.194;12.526;2022-10-16T05:40:09;5.57;;;5.07;;
18140;SDS011;9196;49.194;12.526;2022-10-16T05:42:36;7.30;;;4.73;;
18140;SDS011;9196;49.194;12.526;2022-10-16T05:45:04;13.93;;;5.60;;
18140;SDS011;9196;49.194;12.526;2022-10-16T05:47:31;5.33;;;4.83;;
18140;SDS011;9196;49.194;12.526;2022-10-16T05:49:58;17.07;;;6.00;;
18140;SDS011;9196;49.194;12.526;2022-10-16T05:52:26;5.87;;;5.47;;
18140;SDS011;9196;49.194;12.526;2022-10-16T05:54:53;5.93;;;5.50;;
18140;SDS011;9196;49.194;12.526;2022-10-16T05:57:21;6.27;;;5.60;;
18140;SDS011;9196;49.194;12.526;2022-10-16T05:59:48;12.93;;;5.50;;
18140;SDS011;9196;49.194;12.526;2022-10-16T06:02:14;7.77;;;6.10;;
18140;SDS011;9196;49.194;12.526;2022-10-16T06:04:42;14.30;;;9.07;;
18140;SDS011;9196;49.194;12.526;2022-10-16T06:07:08;6.93;;;6.30;;
18140;SDS011;9196;49.194;12.526;2022-10-16T06:09:35;7.43;;;6.07;;
18140;SDS011;9196;49.194;12.526;2022-10-16T06:12:02;5.60;;;5.10;;
18140;SDS011;9196;49.194;12.526;2022-10-16T06:14:30;5.27;;;4.63;;
18140;SDS011;9196;49.194;12.526;2022-10-16T06:16:57;6.00;;;4.00;;
18140;SDS011;9196;49.194;12.526;2022-10-16T06:19:24;6.03;;;4.70;;
18140;SDS011;9196;49.194;12.526;2022-10-16T06:21:51;5.00;;;4.40;;
18140;SDS011;9196;49.194;12.526;2022-10-16T06:24:17;4.43;;;4.13;;
18140;SDS011;9196;49.194;12.526;2022-10-16T06:26:44;12.10;;;4.23;;
18140;SDS011;9196;49.194;12.526;2022-10-16T06:29:11;3.53;;;3.33;;
18140;SDS011;9196;49.194;12.526;2022-10-16T06:31:39;6.90;;;3.80;;
18140;SDS011;9196;49.194;12.526;2022-10-16T06:34:08;19.13;;;5.83;;
18140;SDS011;9196;49.194;12.526;2022-10-16T06:36:36;6.53;;;3.70;;
18140;SDS011;9196;49.194;12.526;2022-10-16T06:39:04;9.83;;;3.60;;
18140;SDS011;9196;49.194;12.526;2022-10-16T06:41:32;5.80;;;2.50;;
18140;SDS011;9196;49.194;12.526;2022-10-16T06:43:59;7.70;;;2.93;;
18140;SDS011;9196;49.194;12.526;2022-10-16T06:46:26;3.13;;;2.53;;
18140;SDS011;9196;49.194;12.526;2022-10-16T06:48:55;5.17;;;3.00;;
18140;SDS011;9196;49.194;12.526;2022-10-16T06:51:22;6.73;;;2.90;;
18140;SDS011;9196;49.194;12.526;2022-10-16T06:53:50;3.30;;;2.87;;
18140;SDS011;9196;49.194;12.526;2022-10-16T06:56:19;4.87;;;3.47;;
18140;SDS011;9196;49.194;12.526;2022-10-16T06:58:47;14.23;;;3.40;;
18140;SDS011;9196;49.194;12.526;2022-10-16T07:01:15;5.80;;;2.90;;
18140;SDS011;9196;49.194;12.526;2022-10-16T07:03:43;4.43;;;3.93;;
18140;SDS011;9196;49.194;12.526;2022-10-16T07:06:13;10.43;;;6.80;;
18140;SDS011;9196;49.194;12.526;2022-10-16T07:08:42;22.20;;;17.90;;
18140;SDS011;9196;49.194;12.526;2022-10-16T07:11:10;17.43;;;11.60;;
18140;SDS011;9196;49.194;12.526;2022-10-16T07:13:39;8.10;;;7.40;;
18140;SDS011;9196;49.194;12.526;2022-10-16T07:16:07;9.10;;;6.00;;
18140;SDS011;9196;49.194;12.526;2022-10-16T07:18:35;8.33;;;7.30;;
18140;SDS011;9196;49.194;12.526;2022-10-16T07:21:04;9.13;;;8.33;;
18140;SDS011;9196;49.194;12.526;2022-10-16T07:23:33;17.87;;;9.50;;
18140;SDS011;9196;49.194;12.526;2022-10-16T07:26:00;10.03;;;9.10;;
18140;SDS011;9196;49.194;12.526;2022-10-16T07:28:27;11.80;;;10.70;;
18140;SDS011;9196;49.194;12.526;2022-10-16T07:30:54;10.40;;;7.60;;
18140;SDS011;9196;49.194;12.526;2022-10-16T07:33:20;8.70;;;7.43;;
18140;SDS011;9196;49.194;12.526;2022-10-16T07:35:48;9.87;;;6.27;;
18140;SDS011;9196;49.194;12.526;2022-10-16T07:38:16;15.33;;;13.87;;
18140;SDS011;9196;49.194;12.526;2022-10-16T07:40:44;22.03;;;19.93;;
18140;SDS011;9196;49.194;12.526;2022-10-16T07:43:11;20.57;;;18.43;;
18140;SDS011;9196;49.194;12.526;2022-10-16T07:45:46;18.13;;;11.30;;
18140;SDS011;9196;49.194;12.526;2022-10-16T07:48:14;10.60;;;9.60;;
18140;SDS011;9196;49.194;12.526;2022-10-16T07:50:41;7.07;;;5.43;;
18140;SDS011;9196;49.194;12.526;2022-10-16T07:53:08;8.50;;;4.17;;
18140;SDS011;9196;49.194;12.526;2022-10-16T07:55:35;7.13;;;6.17;;
18140;SDS011;9196;49.194;12.526;2022-10-16T07:58:03;7.17;;;4.50;;
18140;SDS011;9196;49.194;12.526;2022-10-16T08:00:30;26.10;;;12.80;;
18140;SDS011;9196;49.194;12.526;2022-10-16T08:02:58;6.80;;;4.50;;
18140;SDS011;9196;49.194;12.526;2022-10-16T08:05:25;4.23;;;2.80;;
18140;SDS011;9196;49.194;12.526;2022-10-16T08:07:52;3.13;;;2.90;;
18140;SDS011;9196;49.194;12.526;2022-10-16T08:10:20;5.30;;;2.93;;
18140;SDS011;9196;49.194;12.526;2022-10-16T08:12:48;3.70;;;2.50;;
18140;SDS011;9196;49.194;12.526;2022-10-16T08:15:17;3.20;;;2.67;;
18140;SDS011;9196;49.194;12.526;2022-10-16T08:17:44;10.03;;;2.97;;
18140;SDS011;9196;49.194;12.526;2022-10-16T08:20:11;2.50;;;2.40;;
18140;SDS011;9196;49.194;12.526;2022-10-16T08:22:38;2.50;;;2.30;;
18140;SDS011;9196;49.194;12.526;2022-10-16T08:25:05;1.83;;;1.73;;
18140;SDS011;9196;49.194;12.526;2022-10-16T08:27:32;1.80;;;1.70;;
18140;SDS011;9196;49.194;12.526;2022-10-16T08:29:59;1.70;;;1.60;;
18140;SDS011;9196;49.194;12.526;2022-10-16T08:32:27;1.67;;;1.57;;
18140;SDS011;9196;49.194;12.526;2022-10-16T08:34:54;2.80;;;2.10;;
18140;SDS011;9196;49.194;12.526;2022-10-16T08:37:21;3.07;;;2.20;;
18140;SDS011;9196;49.194;12.526;2022-10-16T08:39:48;2.20;;;1.93;;
18140;SDS011;9196;49.194;12.526;2022-10-16T08:42:16;6.50;;;2.00;;
18140;SDS011;9196;49.194;12.526;2022-10-16T08:47:56;3.00;;;1.73;;
18140;SDS011;9196;49.194;12.526;2022-10-16T08:50:33;3.50;;;1.80;;
18140;SDS011;9196;49.194;12.526;2022-10-16T08:53:04;2.50;;;1.40;;
18140;SDS011;9196;49.194;12.526;2022-10-16T08:55:33;3.63;;;2.37;;
18140;SDS011;9196;49.194;12.526;2022-10-16T08:58:12;1.57;;;1.47;;
18140;SDS011;9196;49.194;12.526;2022-10-16T09:00:40;2.03;;;1.93;;
18140;SDS011;9196;49.194;12.526;2022-10-16T09:03:14;2.47;;;2.27;;
18140;SDS011;9196;49.194;12.526;2022-10-16T09:08:40;2.23;;;2.00;;
18140;SDS011;9196;49.194;12.526;2022-10-16T09:11:15;2.37;;;1.93;;
18140;SDS011;9196;49.194;12.526;2022-10-16T09:13:47;2.27;;;2.17;;
18140;SDS011;9196;49.194;12.526;2022-10-16T09:16:22;2.10;;;2.00;;
18140;SDS011;9196;49.194;12.526;2022-10-16T09:18:58;4.10;;;2.10;;
18140;SDS011;9196;49.194;12.526;2022-10-16T09:21:31;2.20;;;1.90;;
18140;SDS011;9196;49.194;12.526;2022-10-16T09:24:07;1.80;;;1.70;;
18140;SDS011;9196;49.194;12.526;2022-10-16T09:26:38;3.63;;;2.10;;
18140;SDS011;9196;49.194;12.526;2022-10-16T09:29:04;2.20;;;2.10;;
18140;SDS011;9196;49.194;12.526;2022-10-16T09:31:31;1.77;;;1.77;;
18140;SDS011;9196;49.194;12.526;2022-10-16T09:34:03;1.70;;;1.60;;
18140;SDS011;9196;49.194;12.526;2022-10-16T09:36:33;1.87;;;1.77;;
18140;SDS011;9196;49.194;12.526;2022-10-16T09:39:06;1.90;;;1.80;;
18140;SDS011;9196;49.194;12.526;2022-10-16T09:41:34;1.83;;;1.73;;
18140;SDS011;9196;49.194;12.526;2022-10-16T09:44:03;2.10;;;1.90;;
18140;SDS011;9196;49.194;12.526;2022-10-16T09:46:39;2.40;;;1.80;;
18140;SDS011;9196;49.194;12.526;2022-10-16T09:49:18;2.40;;;2.20;;
18140;SDS011;9196;49.194;12.526;2022-10-16T09:51:47;1.97;;;1.87;;
18140;SDS011;9196;49.194;12.526;2022-10-16T09:54:15;10.77;;;1.97;;
18140;SDS011;9196;49.194;12.526;2022-10-16T09:56:43;2.07;;;1.30;;
18140;SDS011;9196;49.194;12.526;2022-10-16T09:59:11;2.53;;;1.50;;
18140;SDS011;9196;49.194;12.526;2022-10-16T10:01:40;2.37;;;1.80;;
18140;SDS011;9196;49.194;12.526;2022-10-16T10:04:08;1.60;;;1.60;;
18140;SDS011;9196;49.194;12.526;2022-10-16T10:06:40;2.17;;;1.90;;
18140;SDS011;9196;49.194;12.526;2022-10-16T10:09:16;3.63;;;1.60;;
18140;SDS011;9196;49.194;12.526;2022-10-16T10:11:49;3.67;;;1.77;;
18140;SDS011;9196;49.194;12.526;2022-10-16T10:14:19;1.40;;;1.40;;
18140;SDS011;9196;49.194;12.526;2022-10-16T10:17:06;1.63;;;1.43;;
18140;SDS011;9196;49.194;12.526;2022-10-16T10:19:38;1.83;;;1.40;;
18140;SDS011;9196;49.194;12.526;2022-10-16T10:22:15;5.63;;;1.57;;
18140;SDS011;9196;49.194;12.526;2022-10-16T10:24:44;3.47;;;1.40;;
18140;SDS011;9196;49.194;12.526;2022-10-16T10:27:20;1.50;;;1.37;;
18140;SDS011;9196;49.194;12.526;2022-10-16T10:29:51;2.90;;;1.63;;
18140;SDS011;9196;49.194;12.526;2022-10-16T10:32:27;1.43;;;1.33;;
18140;SDS011;9196;49.194;12.526;2022-10-16T10:35:04;6.60;;;1.83;;
18140;SDS011;9196;49.194;12.526;2022-10-16T10:40:45;1.73;;;1.63;;
18140;SDS011;9196;49.194;12.526;2022-10-16T10:43:21;1.80;;;1.70;;
18140;SDS011;9196;49.194;12.526;2022-10-16T10:45:58;1.43;;;1.43;;
18140;SDS011;9196;49.194;12.526;2022-10-16T10:48:43;3.43;;;2.07;;
18140;SDS011;9196;49.194;12.526;2022-10-16T10:51:26;1.03;;;1.03;;
18140;SDS011;9196;49.194;12.526;2022-10-16T10:54:05;4.10;;;1.40;;
18140;SDS011;9196;49.194;12.526;2022-10-16T10:56:45;4.60;;;1.60;;
18140;SDS011;9196;49.194;12.526;2022-10-16T10:59:29;1.20;;;1.20;;
18140;SDS011;9196;49.194;12.526;2022-10-16T11:02:04;2.83;;;1.50;;
18140;SDS011;9196;49.194;12.526;2022-10-16T11:05:00;1.40;;;1.30;;
18140;SDS011;9196;49.194;12.526;2022-10-16T11:07:41;2.90;;;1.20;;
18140;SDS011;9196;49.194;12.526;2022-10-16T11:10:16;2.70;;;1.40;;
18140;SDS011;9196;49.194;12.526;2022-10-16T11:12:47;1.33;;;1.23;;
18140;SDS011;9196;49.194;12.526;2022-10-16T11:15:19;2.30;;;1.30;;
18140;SDS011;9196;49.194;12.526;2022-10-16T11:17:50;1.27;;;1.27;;
18140;SDS011;9196;49.194;12.526;2022-10-16T11:20:22;1.70;;;1.60;;
18140;SDS011;9196;49.194;12.526;2022-10-16T11:22:53;1.70;;;1.60;;
18140;SDS011;9196;49.194;12.526;2022-10-16T11:25:24;2.70;;;1.67;;
18140;SDS011;9196;49.194;12.526;2022-10-16T11:27:54;2.60;;;1.30;;
18140;SDS011;9196;49.194;12.526;2022-10-16T11:30:27;1.27;;;1.27;;
18140;SDS011;9196;49.194;12.526;2022-10-16T11:33:04;1.33;;;1.23;;
18140;SDS011;9196;49.194;12.526;2022-10-16T11:35:41;1.40;;;1.20;;
18140;SDS011;9196;49.194;12.526;2022-10-16T11:38:12;1.37;;;1.27;;
18140;SDS011;9196;49.194;12.526;2022-10-16T11:40:45;1.13;;;1.13;;
18140;SDS011;9196;49.194;12.526;2022-10-16T11:43:15;4.13;;;1.10;;
18140;SDS011;9196;49.194;12.526;2022-10-16T11:45:49;1.33;;;1.23;;
18140;SDS011;9196;49.194;12.526;2022-10-16T11:48:21;1.43;;;1.00;;
18140;SDS011;9196;49.194;12.526;2022-10-16T11:50:53;1.00;;;1.00;;
18140;SDS011;9196;49.194;12.526;2022-10-16T11:53:23;1.10;;;1.10;;
18140;SDS011;9196;49.194;12.526;2022-10-16T11:56:02;1.20;;;1.20;;
18140;SDS011;9196;49.194;12.526;2022-10-16T11:58:31;1.00;;;1.00;;
18140;SDS011;9196;49.194;12.526;2022-10-16T12:01:05;1.37;;;1.37;;
18140;SDS011;9196;49.194;12.526;2022-10-16T12:03:44;1.60;;;1.23;;
18140;SDS011;9196;49.194;12.526;2022-10-16T12:06:23;1.50;;;1.40;;
18140;SDS011;9196;49.194;12.526;2022-10-16T12:08:57;2.23;;;1.30;;
18140;SDS011;9196;49.194;12.526;2022-10-16T12:11:34;1.40;;;1.30;;
18140;SDS011;9196;49.194;12.526;2022-10-16T12:14:07;1.20;;;1.10;;
18140;SDS011;9196;49.194;12.526;2022-10-16T12:16:51;1.17;;;1.17;;
18140;SDS011;9196;49.194;12.526;2022-10-16T12:19:21;2.20;;;1.10;;
18140;SDS011;9196;49.194;12.526;2022-10-16T12:21:49;1.63;;;1.53;;
18140;SDS011;9196;49.194;12.526;2022-10-16T12:24:21;1.90;;;1.23;;
18140;SDS011;9196;49.194;12.526;2022-10-16T12:26:57;1.27;;;1.17;;
18140;SDS011;9196;49.194;12.526;2022-10-16T12:29:28;1.90;;;1.13;;
18140;SDS011;9196;49.194;12.526;2022-10-16T12:31:59;27.27;;;1.50;;
18140;SDS011;9196;49.194;12.526;2022-10-16T12:34:29;1.70;;;1.60;;
18140;SDS011;9196;49.194;12.526;2022-10-16T12:37:07;1.63;;;1.53;;
18140;SDS011;9196;49.194;12.526;2022-10-16T12:39:37;2.80;;;1.60;;
18140;SDS011;9196;49.194;12.526;2022-10-16T12:42:17;1.47;;;1.37;;
18140;SDS011;9196;49.194;12.526;2022-10-16T12:44:47;2.67;;;1.30;;
18140;SDS011;9196;49.194;12.526;2022-10-16T12:47:19;2.10;;;1.27;;
18140;SDS011;9196;49.194;12.526;2022-10-16T12:49:49;1.20;;;1.20;;
18140;SDS011;9196;49.194;12.526;2022-10-16T12:52:23;1.37;;;1.20;;
18140;SDS011;9196;49.194;12.526;2022-10-16T12:54:55;1.20;;;1.17;;
18140;SDS011;9196;49.194;12.526;2022-10-16T12:57:32;1.57;;;1.10;;
18140;SDS011;9196;49.194;12.526;2022-10-16T13:00:13;2.43;;;1.20;;
18140;SDS011;9196;49.194;12.526;2022-10-16T13:06:03;2.97;;;1.77;;
18140;SDS011;9196;49.194;12.526;2022-10-16T13:08:44;3.17;;;1.10;;
18140;SDS011;9196;49.194;12.526;2022-10-16T13:11:30;1.73;;;1.27;;
18140;SDS011;9196;49.194;12.526;2022-10-16T13:14:09;1.43;;;1.30;;
18140;SDS011;9196;49.194;12.526;2022-10-16T13:17:05;1.30;;;1.20;;
18140;SDS011;9196;49.194;12.526;2022-10-16T13:19:40;10.30;;;1.53;;
18140;SDS011;9196;49.194;12.526;2022-10-16T13:22:15;1.53;;;1.40;;
18140;SDS011;9196;49.194;12.526;2022-10-16T13:24:52;1.57;;;1.47;;
18140;SDS011;9196;49.194;12.526;2022-10-16T13:27:28;1.30;;;1.30;;
18140;SDS011;9196;49.194;12.526;2022-10-16T13:30:10;2.93;;;1.83;;
18140;SDS011;9196;49.194;12.526;2022-10-16T13:32:40;2.33;;;1.33;;
18140;SDS011;9196;49.194;12.526;2022-10-16T13:35:21;4.50;;;1.37;;
18140;SDS011;9196;49.194;12.526;2022-10-16T13:37:49;2.13;;;1.83;;
18140;SDS011;9196;49.194;12.526;2022-10-16T13:40:20;1.80;;;1.70;;
18140;SDS011;9196;49.194;12.526;2022-10-16T13:42:47;2.40;;;2.20;;
18140;SDS011;9196;49.194;12.526;2022-10-16T13:45:19;4.23;;;1.90;;
18140;SDS011;9196;49.194;12.526;2022-10-16T13:47:48;2.73;;;1.50;;
18140;SDS011;9196;49.194;12.526;2022-10-16T13:50:17;1.73;;;1.73;;
18140;SDS011;9196;49.194;12.526;2022-10-16T13:52:44;2.40;;;1.77;;
18140;SDS011;9196;49.194;12.526;2022-10-16T13:55:12;1.90;;;1.80;;
18140;SDS011;9196;49.194;12.526;2022-10-16T13:57:39;2.27;;;2.17;;
18140;SDS011;9196;49.194;12.526;2022-10-16T14:00:17;1.57;;;1.57;;
18140;SDS011;9196;49.194;12.526;2022-10-16T14:02:50;3.67;;;1.87;;
18140;SDS011;9196;49.194;12.526;2022-10-16T14:05:21;1.73;;;1.63;;
18140;SDS011;9196;49.194;12.526;2022-10-16T14:07:48;1.80;;;1.70;;
18140;SDS011;9196;49.194;12.526;2022-10-16T14:10:21;6.00;;;1.90;;
18140;SDS011;9196;49.194;12.526;2022-10-16T14:12:54;5.80;;;2.03;;
18140;SDS011;9196;49.194;12.526;2022-10-16T14:15:24;1.93;;;1.77;;
18140;SDS011;9196;49.194;12.526;2022-10-16T14:17:51;2.60;;;1.70;;
18140;SDS011;9196;49.194;12.526;2022-10-16T14:20:19;4.30;;;1.80;;
18140;SDS011;9196;49.194;12.526;2022-10-16T14:22:57;3.53;;;1.80;;
18140;SDS011;9196;49.194;12.526;2022-10-16T14:25:26;2.20;;;2.00;;
18140;SDS011;9196;49.194;12.526;2022-10-16T14:27:58;7.13;;;2.23;;
18140;SDS011;9196;49.194;12.526;2022-10-16T14:30:28;2.50;;;2.30;;
18140;SDS011;9196;49.194;12.526;2022-10-16T14:32:56;1.77;;;1.67;;
18140;SDS011;9196;49.194;12.526;2022-10-16T14:35:25;1.97;;;1.87;;
18140;SDS011;9196;49.194;12.526;2022-10-16T14:37:55;2.00;;;1.50;;
18140;SDS011;9196;49.194;12.526;2022-10-16T14:40:24;2.10;;;2.00;;
18140;SDS011;9196;49.194;12.526;2022-10-16T14:42:52;1.90;;;1.80;;
18140;SDS011;9196;49.194;12.526;2022-10-16T14:45:20;5.03;;;1.57;;
18140;SDS011;9196;49.194;12.526;2022-10-16T14:47:52;1.70;;;1.70;;
18140;SDS011;9196;49.194;12.526;2022-10-16T14:50:22;5.10;;;2.10;;
18140;SDS011;9196;49.194;12.526;2022-10-16T14:52:48;3.73;;;2.57;;
18140;SDS011;9196;49.194;12.526;2022-10-16T14:55:16;3.20;;;2.50;;
18140;SDS011;9196;49.194;12.526;2022-10-16T14:57:43;2.03;;;1.67;;
18140;SDS011;9196;49.194;12.526;2022-10-16T15:00:15;7.13;;;2.03;;
18140;SDS011;9196;49.194;12.526;2022-10-16T15:02:45;3.30;;;1.90;;
18140;SDS011;9196;49.194;12.526;2022-10-16T15:05:15;4.70;;;2.10;;
18140;SDS011;9196;49.194;12.526;2022-10-16T15:07:43;3.60;;;1.87;;
18140;SDS011;9196;49.194;12.526;2022-10-16T15:10:11;1.80;;;1.70;;
18140;SDS011;9196;49.194;12.526;2022-10-16T15:12:38;2.60;;;2.17;;
18140;SDS011;9196;49.194;12.526;2022-10-16T15:15:14;1.90;;;1.33;;
18140;SDS011;9196;49.194;12.526;2022-10-16T15:18:06;7.63;;;2.10;;